General Aviation Weather

Text Reports

Enter one or more of the following location identifiers separated by a space:

Zip Code, Four-Character ICAO or Three-Character IATA airport codes.

METAR - Aviation Routine Weather Report
KDDH - Bennington, Vermont
Updated at 12:54 PM GMT on June 03, 2015 (8:54 AM EDT):
METAR KDDH 031254Z AUTO VRB03KT 10SM SCT018 12/07 A3026 RMK AO2 SLP246 T01170067
TAF - Terminal Area Forecast
KDDH - Bennington, Vermont
Updated at 12:54 PM GMT on June 03, 2015 (8:54 AM EDT):
No TAF is currently available for this location.
Decoded:
No decoded TAF is available.
PIREP - Pilot Weather Report
KDDH - Bennington, Vermont
Updated at 12:54 PM GMT on June 03, 2015 (8:54 AM EDT):
No PIREP is currently available for this location.
AIRMET - Airmens Meteorological Information
KDDH - Bennington, Vermont
Updated at 12:54 PM GMT on June 03, 2015 (8:54 AM EDT):
No AIRMET is currently available for this location.
SIGMET - Significant Meteorological Information
KDDH - Bennington, Vermont
Updated at 12:54 PM GMT on June 03, 2015 (8:54 AM EDT):
No SIGMET is currently available for this location.
NOTAM - Notice to Airmen
KDDH - Bennington, Vermont
Updated at 12:54 PM GMT on June 03, 2015 (8:54 AM EDT):
No NOTAM is currently available for this location.
Forecast Area
KDDH - Bennington, Vermont
Updated at 12:54 PM GMT on June 03, 2015 (8:54 AM EDT):
No NOTAM is currently available for this location.
Aviation Weather Maps